Terminal Aerodrome Forecast
Issued by NWS Billings, MT

Home | Current Version | Previous Version | Graphics & Text | Print | Product List | Glossary On
Versions: 1 2 3 4 5 6 7 8 9 10 11 12 13 14 15 16 17 18 19 20 21 22 23 24 25 26 27 28 29 30 31 32 33
000
FTUS45 KBYZ 272336
TAFMLS
TAF
KMLS 272336Z 2800/2824 32008KT P6SM VCTS SCT040CB BKN070
     FM280300 24008KT P6SM VCSH BKN080
     FM280600 26006KT P6SM BKN090
     FM281800 31012KT P6SM VCTS BKN070CB=

USA.gov is the U.S. government's official web portal to all federal, state and local government web resources and services.